Time;durP1;ratioP1;P1;durP2;ratioP2;P2;SDS_P1;SDS_P2;PMS_P1;PMS_P2;Temp;Humidity;BMP_temperature;BMP_pressure;BME280_temperature;BME280_humidity;BME280_pressure;Samples;Min_cycle;Max_cycle;Signal;HPM_P1;HPM_P2
2024/03/19 00:01:18;;;;;;;3.70;2.27;;;16.50;99.90;;;16.52;53.16;101353.44;6056632;22;118351;-37
2024/03/19 00:03:44;;;;;;;3.03;2.10;;;16.40;99.90;;;16.46;53.38;101352.84;6043428;22;101952;-34
2024/03/19 00:06:10;;;;;;;4.60;2.83;;;16.30;99.90;;;16.43;53.56;101353.00;5882273;22;102170;-37
2024/03/19 00:08:38;;;;;;;5.23;2.63;;;16.20;99.90;;;16.39;53.72;101357.63;5985632;22;98482;-36
2024/03/19 00:11:04;;;;;;;2.30;1.80;;;16.20;99.90;;;16.33;53.85;101352.56;5958695;22;98728;-37
2024/03/19 00:13:33;;;;;;;7.10;3.10;;;16.10;99.90;;;16.29;53.73;101359.00;5986046;22;124958;-34
2024/03/19 00:15:59;;;;;;;4.60;2.33;;;16.00;99.90;;;16.26;54.33;101353.81;5931445;22;101505;-37
2024/03/19 00:18:24;;;;;;;4.03;3.23;;;16.00;99.90;;;16.22;54.21;101353.13;5959000;22;100910;-35
2024/03/19 00:20:53;;;;;;;3.73;2.10;;;15.90;99.90;;;16.16;54.44;101356.06;5942189;22;107639;-36
2024/03/19 00:23:21;;;;;;;5.13;3.07;;;15.90;99.90;;;16.13;54.65;101350.88;6024702;22;100754;-37
2024/03/19 00:25:50;;;;;;;4.93;2.30;;;15.80;99.90;;;16.13;54.35;101345.56;5903835;22;98479;-38
2024/03/19 00:28:16;;;;;;;2.83;2.10;;;15.80;99.90;;;16.22;54.48;101355.78;6020447;22;98416;-37
2024/03/19 00:30:41;;;;;;;3.63;2.13;;;16.00;99.90;;;16.28;54.19;101346.63;5990351;22;101228;-37
2024/03/19 00:33:07;;;;;;;4.63;2.50;;;16.20;99.90;;;16.30;54.09;101348.28;6001308;22;103296;-36
2024/03/19 00:35:33;;;;;;;3.60;2.47;;;16.20;99.90;;;16.28;53.95;101355.47;5954920;22;108293;-36
2024/03/19 00:37:59;;;;;;;4.43;2.50;;;16.20;99.90;;;16.33;53.82;101358.75;6006219;22;100795;-37
2024/03/19 00:40:26;;;;;;;2.77;2.37;;;16.20;99.90;;;16.33;53.82;101352.56;5983332;22;99561;-35
2024/03/19 00:42:52;;;;;;;3.80;2.07;;;16.20;99.90;;;16.32;53.92;101350.84;5925567;22;105738;-35
2024/03/19 00:45:20;;;;;;;2.90;2.30;;;16.20;99.90;;;16.32;54.26;101357.03;5985383;22;118955;-36
2024/03/19 00:47:46;;;;;;;2.33;1.57;;;16.20;99.90;;;16.26;54.06;101362.69;5992938;22;101877;-37
2024/03/19 00:50:14;;;;;;;5.43;3.63;;;16.10;99.90;;;16.15;54.17;101362.31;6012193;22;109761;-38
2024/03/19 00:52:40;;;;;;;7.13;3.60;;;15.90;99.90;;;16.12;53.74;101354.50;5959698;22;100464;-36
2024/03/19 00:55:09;;;;;;;3.50;2.50;;;15.90;99.90;;;16.09;54.77;101346.66;5997234;22;104141;-38
2024/03/19 00:57:35;;;;;;;3.03;2.40;;;15.80;99.90;;;16.11;54.63;101347.44;6043986;22;97652;-37
2024/03/19 01:00:08;;;;;;;11.43;3.60;;;15.80;99.90;;;16.05;54.51;101347.72;6016672;22;100491;-37
2024/03/19 01:02:33;;;;;;;3.27;2.33;;;15.70;99.90;;;16.02;55.00;101346.06;5979512;22;104538;-37
2024/03/19 01:05:01;;;;;;;8.03;3.03;;;15.70;99.90;;;16.03;54.74;101344.28;5966923;22;98460;-36
2024/03/19 01:07:26;;;;;;;3.97;2.43;;;15.70;99.90;;;16.05;54.63;101343.25;6029922;22;101436;-36
2024/03/19 01:09:52;;;;;;;4.20;2.20;;;15.80;99.90;;;16.08;54.93;101339.63;5996883;22;121785;-43
2024/03/19 01:12:20;;;;;;;4.67;2.07;;;15.80;99.90;;;16.11;54.74;101336.78;6055058;22;122600;-37
2024/03/19 01:14:46;;;;;;;3.50;2.10;;;15.90;99.90;;;16.13;54.51;101339.38;5972601;22;98690;-40
2024/03/19 01:17:12;;;;;;;8.77;4.13;;;15.90;99.90;;;16.05;54.21;101337.06;6003951;22;104533;-36
2024/03/19 01:19:38;;;;;;;4.00;2.23;;;15.80;99.90;;;16.06;54.59;101341.50;6103005;22;97824;-36
2024/03/19 01:22:04;;;;;;;4.90;3.00;;;15.80;99.90;;;16.03;53.90;101338.94;6084638;22;113529;-35
2024/03/19 01:24:29;;;;;;;7.63;3.47;;;15.80;99.90;;;15.96;54.63;101337.53;6090578;22;97783;-36
2024/03/19 01:26:55;;;;;;;5.90;3.67;;;15.60;99.90;;;15.92;54.87;101331.50;6116580;22;97512;-35
2024/03/19 01:29:21;;;;;;;7.43;3.73;;;15.60;99.90;;;15.80;54.81;101337.38;6092434;22;99600;-36
2024/03/19 01:31:46;;;;;;;5.00;3.10;;;15.50;99.90;;;15.80;55.03;101336.53;6108567;22;115902;-36
2024/03/19 01:34:15;;;;;;;3.37;2.20;;;15.40;99.90;;;15.69;55.68;101335.22;6109774;22;97429;-34
2024/03/19 01:36:41;;;;;;;5.27;2.83;;;15.20;99.90;;;15.71;55.96;101338.66;6113720;22;100292;-36
2024/03/19 01:39:09;;;;;;;3.60;2.50;;;15.30;99.90;;;15.72;55.64;101337.72;6093721;22;99480;-36
2024/03/19 01:41:35;;;;;;;3.17;2.53;;;15.30;99.90;;;15.72;55.81;101339.53;6107457;22;98673;-36
2024/03/19 01:44:01;;;;;;;2.60;1.97;;;15.30;99.90;;;15.70;55.77;101331.63;6120954;22;98179;-36
2024/03/19 01:46:28;;;;;;;5.90;2.97;;;15.30;99.90;;;15.72;55.84;101332.41;6065636;22;117835;-36
2024/03/19 01:48:55;;;;;;;4.40;2.30;;;15.40;99.90;;;15.77;55.76;101322.44;6097516;22;98672;-39
2024/03/19 01:51:23;;;;;;;4.20;2.60;;;15.40;99.90;;;15.80;55.63;101315.25;6115586;22;101374;-37
2024/03/19 01:53:50;;;;;;;3.00;2.13;;;15.50;99.90;;;15.86;55.61;101325.59;6114935;22;97728;-35
2024/03/19 01:56:19;;;;;;;6.87;3.53;;;15.60;99.90;;;15.90;55.23;101317.38;6094230;22;97738;-37
2024/03/19 01:58:49;;;;;;;3.10;2.17;;;15.70;99.90;;;15.92;55.47;101314.66;6107670;22;98053;-36
2024/03/19 02:01:15;;;;;;;5.27;2.50;;;15.70;99.90;;;15.91;55.08;101318.22;6092842;22;105331;-36
2024/03/19 02:03:43;;;;;;;3.73;2.27;;;15.60;99.90;;;15.84;55.00;101316.81;6093765;22;106875;-36
2024/03/19 02:06:09;;;;;;;4.87;3.00;;;15.50;99.90;;;15.81;55.42;101311.66;6113314;22;97445;-35
2024/03/19 02:08:35;;;;;;;3.07;1.80;;;15.50;99.90;;;15.82;55.54;101316.03;6094484;22;98730;-33
2024/03/19 02:11:04;;;;;;;2.83;2.03;;;15.50;99.90;;;15.85;55.40;101313.22;6048476;22;102012;-37
2024/03/19 02:13:30;;;;;;;4.77;2.93;;;15.50;99.90;;;15.88;54.66;101307.75;6093484;22;97536;-36
2024/03/19 02:15:56;;;;;;;6.27;2.43;;;15.60;99.90;;;15.84;55.09;101298.19;6047817;22;119660;-33
2024/03/19 02:18:22;;;;;;;4.93;2.80;;;15.50;99.90;;;15.83;55.35;101299.13;6113573;22;98358;-36
2024/03/19 02:20:48;;;;;;;7.37;4.03;;;15.50;99.90;;;15.66;53.34;101298.13;6112928;22;100586;-36
2024/03/19 02:23:13;;;;;;;3.87;2.67;;;15.30;99.90;;;15.68;55.84;101293.59;6104900;22;110888;-36
2024/03/19 02:25:39;;;;;;;7.23;3.93;;;15.30;99.90;;;15.67;55.62;101291.88;6138891;22;97192;-35
2024/03/19 02:28:05;;;;;;;4.03;2.43;;;15.20;99.90;;;15.65;56.09;101280.44;6085252;22;103286;-35
2024/03/19 02:30:31;;;;;;;2.70;1.90;;;15.20;99.90;;;15.68;55.88;101284.75;6083323;22;98953;-35
2024/03/19 02:32:56;;;;;;;6.07;2.63;;;15.30;99.90;;;15.64;55.59;101277.88;6091689;22;104274;-36
2024/03/19 02:35:22;;;;;;;3.77;2.20;;;15.30;99.90;;;15.67;55.97;101283.91;6097372;22;97889;-34
2024/03/19 02:37:48;;;;;;;9.63;3.83;;;15.30;99.90;;;15.50;54.42;101285.59;6085620;22;115616;-37
2024/03/19 02:40:14;;;;;;;8.90;4.00;;;15.10;99.90;;;15.34;54.94;101293.41;6050421;22;102828;-35
2024/03/19 02:42:39;;;;;;;3.00;2.13;;;14.90;99.90;;;15.43;56.60;101291.16;6110304;22;97422;-37
2024/03/19 02:45:05;;;;;;;7.13;3.43;;;14.90;99.90;;;15.39;56.41;101288.72;6070004;22;118042;-36
2024/03/19 02:47:31;;;;;;;3.77;2.60;;;14.90;99.90;;;15.41;56.58;101286.88;6065389;22;98505;-36
2024/03/19 02:49:57;;;;;;;3.70;2.60;;;15.00;99.90;;;15.35;56.73;101292.47;6038762;22;112131;-36
2024/03/19 02:52:23;;;;;;;7.27;3.47;;;14.80;99.90;;;15.32;56.97;101281.94;6079439;22;118692;-37
2024/03/19 02:54:48;;;;;;;6.43;3.47;;;14.80;99.90;;;15.22;55.25;101283.31;6092149;22;97239;-36
2024/03/19 02:57:14;;;;;;;8.13;3.80;;;14.70;99.90;;;15.06;55.56;101291.97;6080987;22;97963;-36
2024/03/19 02:59:40;;;;;;;6.50;3.30;;;14.60;99.90;;;15.12;57.43;101297.00;6111687;22;97698;-36
2024/03/19 03:02:08;;;;;;;3.60;2.33;;;14.50;99.90;;;15.22;57.21;101285.97;6054449;22;97422;-35
2024/03/19 03:04:34;;;;;;;6.63;3.70;;;14.70;99.90;;;15.25;56.46;101286.69;6086412;22;120508;-36
2024/03/19 03:07:00;;;;;;;8.30;4.77;;;14.80;99.90;;;15.23;55.92;101291.22;6072065;22;100789;-35
2024/03/19 03:09:26;;;;;;;7.30;3.53;;;14.80;99.90;;;15.26;56.91;101292.88;5987922;22;106590;-36
2024/03/19 03:11:52;;;;;;;3.87;2.30;;;14.80;99.90;;;15.26;57.14;101295.53;6058201;22;97240;-35
2024/03/19 03:14:18;;;;;;;5.87;2.73;;;14.70;99.90;;;15.27;56.11;101297.25;6052107;22;97189;-37
2024/03/19 03:16:44;;;;;;;5.37;2.93;;;14.80;99.90;;;15.30;56.48;101294.44;6124235;22;128187;-37
2024/03/19 03:19:09;;;;;;;6.23;3.90;;;14.80;99.90;;;15.29;56.52;101298.91;6069113;22;121685;-36
2024/03/19 03:21:35;;;;;;;7.27;4.07;;;14.80;99.90;;;15.30;56.90;101299.75;6042751;22;106881;-36
2024/03/19 03:24:01;;;;;;;7.93;3.70;;;14.80;99.90;;;15.30;56.99;101307.75;6095481;22;111950;-37
2024/03/19 03:26:26;;;;;;;6.30;2.83;;;14.70;99.90;;;15.26;57.26;101303.50;6087002;22;97817;-35
2024/03/19 03:28:52;;;;;;;4.17;2.83;;;14.70;99.90;;;15.30;56.92;101310.41;6087262;22;97949;-35
2024/03/19 03:31:19;;;;;;;3.63;2.47;;;14.80;99.90;;;15.30;56.85;101310.41;6039014;22;111193;-43
2024/03/19 03:33:47;;;;;;;2.90;2.27;;;14.80;99.90;;;15.35;57.12;101311.06;6046994;22;100167;-36
2024/03/19 03:36:13;;;;;;;7.17;3.77;;;14.90;99.90;;;15.32;55.76;101313.84;6053484;22;102169;-37
2024/03/19 03:38:39;;;;;;;3.10;2.10;;;14.90;99.90;;;15.33;56.72;101307.59;6052415;22;101429;-35
2024/03/19 03:41:07;;;;;;;4.27;2.57;;;14.90;99.90;;;15.36;56.16;101316.31;6065269;22;97498;-39
2024/03/19 03:43:34;;;;;;;7.90;3.53;;;15.00;99.90;;;15.35;56.18;101319.06;6118448;22;109761;-36
2024/03/19 03:46:00;;;;;;;6.23;3.90;;;14.90;99.90;;;15.34;56.51;101312.88;6095370;22;99721;-34
2024/03/19 03:48:26;;;;;;;4.77;2.80;;;14.90;99.90;;;15.29;57.06;101319.31;6091436;22;97617;-35
2024/03/19 03:50:52;;;;;;;7.67;3.57;;;14.80;99.90;;;15.30;56.72;101334.31;6096717;22;100803;-34
2024/03/19 03:53:20;;;;;;;6.60;3.80;;;14.80;99.90;;;15.31;57.09;101328.94;6097773;22;109542;-34
2024/03/19 03:55:46;;;;;;;6.03;3.57;;;14.80;99.90;;;15.33;56.43;101328.84;6109221;22;115508;-37
2024/03/19 03:58:12;;;;;;;4.20;2.20;;;14.90;99.90;;;15.41;56.66;101324.06;6115223;22;121133;-36
2024/03/19 04:00:39;;;;;;;5.33;3.17;;;15.00;99.90;;;15.40;56.62;101323.22;6093435;22;115515;-37
2024/03/19 04:03:05;;;;;;;4.93;3.07;;;15.00;99.90;;;15.36;55.76;101321.63;6097540;22;97626;-36
2024/03/19 04:05:31;;;;;;;2.77;1.80;;;15.00;99.90;;;15.44;56.73;101329.25;6100963;22;117112;-35
2024/03/19 04:07:56;;;;;;;3.33;2.23;;;15.00;99.90;;;15.41;56.25;101327.59;6081090;22;114554;-35
2024/03/19 04:10:22;;;;;;;4.20;2.27;;;15.00;99.90;;;15.45;56.72;101325.66;6112590;22;114808;-36
2024/03/19 04:12:49;;;;;;;6.50;2.60;;;15.10;99.90;;;15.45;56.15;101321.19;6109259;22;97101;-36
2024/03/19 04:15:16;;;;;;;2.30;1.53;;;15.10;99.90;;;15.53;56.47;101334.16;6106568;22;99670;-35
2024/03/19 04:17:48;;;;;;;2.97;1.93;;;15.20;99.90;;;15.58;56.32;101339.25;6093508;22;100771;-35
2024/03/19 04:20:15;;;;;;;6.67;3.73;;;15.30;99.90;;;15.51;54.28;101341.34;6092328;22;97491;-37
2024/03/19 04:22:42;;;;;;;4.87;2.83;;;15.20;99.90;;;15.55;56.12;101342.94;6084782;22;97213;-35
2024/03/19 04:25:09;;;;;;;3.50;2.10;;;15.20;99.90;;;15.57;56.20;101341.06;6102472;22;98003;-35
2024/03/19 04:27:37;;;;;;;3.50;2.43;;;15.20;99.90;;;15.60;55.95;101340.94;6098850;22;98846;-36
2024/03/19 04:30:05;;;;;;;7.97;3.37;;;15.30;99.90;;;15.67;55.68;101353.03;6097636;22;102018;-35
2024/03/19 04:32:31;;;;;;;3.57;2.17;;;15.40;99.90;;;15.74;55.59;101357.13;6088605;22;97841;-35
2024/03/19 04:34:57;;;;;;;2.43;2.13;;;15.50;99.90;;;15.86;55.46;101352.19;6083752;22;125337;-36
2024/03/19 04:37:22;;;;;;;2.97;1.70;;;15.70;99.90;;;15.94;55.18;101355.38;6085542;22;98126;-37
2024/03/19 04:39:48;;;;;;;3.10;1.97;;;15.80;99.90;;;15.97;54.81;101356.06;6105603;22;113543;-34
2024/03/19 04:42:17;;;;;;;3.97;2.00;;;15.80;99.90;;;16.02;55.05;101363.84;6077716;22;97772;-36
2024/03/19 04:44:43;;;;;;;4.33;2.57;;;15.90;99.90;;;16.06;53.88;101358.31;6085093;22;97751;-35
2024/03/19 04:47:09;;;;;;;3.60;2.03;;;16.00;99.90;;;16.09;54.66;101359.97;6091378;22;97526;-37
2024/03/19 04:49:35;;;;;;;2.50;1.90;;;16.00;99.90;;;16.05;54.55;101356.56;6114328;22;106184;-36
2024/03/19 04:52:01;;;;;;;6.73;3.53;;;15.90;99.90;;;15.99;54.63;101363.97;6116055;22;118360;-35
2024/03/19 04:54:26;;;;;;;3.83;2.03;;;15.70;99.90;;;15.97;54.68;101368.53;6124663;22;99212;-35
2024/03/19 04:56:52;;;;;;;4.50;2.30;;;15.70;99.90;;;15.80;54.98;101371.09;6114929;22;101366;-34
2024/03/19 04:59:18;;;;;;;6.13;3.83;;;15.40;99.90;;;15.76;55.07;101378.34;6076153;22;101121;-35
2024/03/19 05:01:44;;;;;;;7.10;3.73;;;15.30;99.90;;;15.73;55.13;101376.69;6123293;22;97360;-37
2024/03/19 05:04:13;;;;;;;2.40;2.07;;;15.40;99.90;;;15.78;55.37;101373.84;6101827;22;98481;-36
2024/03/19 05:06:38;;;;;;;2.43;1.77;;;15.40;99.90;;;15.84;55.46;101372.69;6107981;22;115725;-34
2024/03/19 05:09:06;;;;;;;4.43;2.87;;;15.50;99.90;;;15.89;55.11;101375.97;6053674;22;105247;-35
2024/03/19 05:11:32;;;;;;;3.80;2.00;;;15.70;99.90;;;15.93;55.07;101382.91;6093445;22;97271;-38
2024/03/19 05:13:58;;;;;;;9.37;3.93;;;15.70;99.90;;;15.84;54.03;101386.84;6100753;22;103706;-39
2024/03/19 05:16:24;;;;;;;3.53;2.40;;;15.60;99.90;;;15.87;55.28;101377.84;6090555;22;97811;-36
2024/03/19 05:18:50;;;;;;;4.70;2.13;;;15.60;99.90;;;15.80;55.33;101379.09;6114761;22;97147;-34
2024/03/19 05:21:16;;;;;;;3.50;1.77;;;15.50;99.90;;;15.87;55.15;101386.69;6119741;22;97046;-43
2024/03/19 05:23:43;;;;;;;2.87;2.03;;;15.60;99.90;;;15.92;55.20;101381.19;6096183;22;99913;-36
2024/03/19 05:26:09;;;;;;;2.10;1.67;;;15.70;99.90;;;15.96;54.60;101380.09;6120594;22;98964;-36
2024/03/19 05:28:34;;;;;;;3.07;1.90;;;15.70;99.90;;;16.01;54.67;101383.41;6106036;22;105147;-33
2024/03/19 05:31:00;;;;;;;4.40;2.00;;;15.90;99.90;;;16.07;54.49;101393.78;6063810;22;108807;-37
2024/03/19 05:33:26;;;;;;;2.80;1.63;;;15.90;99.90;;;16.08;54.68;101390.19;6110818;22;98017;-36
2024/03/19 05:35:53;;;;;;;6.00;3.43;;;15.90;99.90;;;16.09;52.79;101397.22;6106336;22;125901;-36
2024/03/19 05:38:19;;;;;;;9.27;3.83;;;16.00;99.90;;;16.01;53.24;101396.69;6051052;22;97035;-36
2024/03/19 05:40:45;;;;;;;5.97;3.80;;;15.80;99.90;;;15.98;52.80;101399.50;6090246;22;110182;-34
2024/03/19 05:43:10;;;;;;;6.93;3.27;;;15.70;99.90;;;15.86;54.62;101400.06;6097404;22;114476;-37
2024/03/19 05:45:36;;;;;;;2.73;1.90;;;15.50;99.90;;;15.87;55.20;101396.47;6092545;22;97601;-34
2024/03/19 05:48:03;;;;;;;3.43;1.97;;;15.50;99.90;;;15.84;55.14;101396.63;6070719;22;97716;-43
2024/03/19 05:50:38;;;;;;;2.97;2.13;;;15.50;99.90;;;15.83;54.72;101400.22;6085294;22;97649;-35
2024/03/19 05:53:05;;;;;;;2.97;1.80;;;15.50;99.90;;;15.79;55.33;101401.31;6108974;22;129278;-37
2024/03/19 05:55:30;;;;;;;3.60;1.70;;;15.40;99.90;;;15.87;55.01;101401.78;6078875;22;99116;-36
2024/03/19 05:57:56;;;;;;;3.23;2.07;;;15.60;99.90;;;15.89;55.05;101410.56;6105756;22;113311;-35
2024/03/19 06:00:22;;;;;;;5.87;3.57;;;15.60;99.90;;;15.93;54.52;101413.03;6100128;22;107046;-38
2024/03/19 06:02:50;;;;;;;6.17;3.60;;;15.70;99.90;;;15.95;54.19;101399.66;6066118;22;98108;-36
2024/03/19 06:05:16;;;;;;;4.57;2.70;;;15.70;99.90;;;15.94;54.72;101403.25;6084131;22;97415;-38
2024/03/19 06:07:42;;;;;;;5.10;3.00;;;15.70;99.90;;;15.91;54.54;101403.38;6097751;22;97715;-36
2024/03/19 06:10:09;;;;;;;5.83;2.83;;;15.70;99.90;;;15.87;54.90;101407.13;6099118;22;102583;-37
2024/03/19 06:12:35;;;;;;;6.63;3.57;;;15.60;99.90;;;15.87;54.64;101407.13;6050221;22;98322;-37
2024/03/19 06:15:02;;;;;;;4.30;2.50;;;15.60;99.90;;;15.84;55.17;101407.25;6088598;22;97421;-36
2024/03/19 06:17:28;;;;;;;3.07;2.00;;;15.50;99.90;;;15.92;55.13;101410.44;6095176;22;97774;-35
2024/03/19 06:19:55;;;;;;;3.17;1.97;;;15.70;99.90;;;15.97;55.03;101411.09;6079867;22;97806;-35
2024/03/19 06:22:21;;;;;;;2.40;1.87;;;15.80;99.90;;;16.02;54.45;101414.38;6102218;22;102800;-38
2024/03/19 06:24:47;;;;;;;3.30;1.87;;;15.90;99.90;;;16.07;54.40;101420.38;6089559;22;108057;-36
2024/03/19 06:27:13;;;;;;;2.90;1.90;;;15.90;99.90;;;16.16;54.25;101422.59;6056081;22;97576;-36
2024/03/19 06:29:39;;;;;;;9.00;3.60;;;16.10;99.90;;;16.22;53.10;101424.13;6088631;22;97374;-36
2024/03/19 06:32:06;;;;;;;3.13;1.80;;;16.20;99.90;;;16.21;54.28;101428.59;6106306;22;99511;-36
2024/03/19 06:34:32;;;;;;;3.30;1.80;;;16.10;99.90;;;16.21;53.94;101417.94;6078979;22;99210;-35
2024/03/19 06:37:01;;;;;;;4.57;2.67;;;16.10;99.90;;;16.16;53.77;101424.41;6082032;22;97609;-36
2024/03/19 06:39:26;;;;;;;3.53;1.93;;;16.00;99.90;;;16.13;54.07;101422.75;6097364;22;109072;-36
2024/03/19 06:41:52;;;;;;;6.13;3.50;;;16.00;99.90;;;16.02;52.14;101425.03;6089758;22;101701;-37
2024/03/19 06:44:18;;;;;;;6.40;3.90;;;15.90;99.90;;;16.04;52.54;101426.69;6112438;22;123806;-34
2024/03/19 06:46:43;;;;;;;2.67;1.50;;;15.90;99.90;;;16.03;54.49;101432.94;6078409;22;97195;-35
2024/03/19 06:49:09;;;;;;;3.37;1.77;;;15.80;99.90;;;16.06;54.43;101429.31;6071313;22;117862;-36
2024/03/19 06:51:35;;;;;;;3.03;2.13;;;15.90;99.90;;;16.11;53.68;101440.59;6098272;22;110246;-35
2024/03/19 06:54:01;;;;;;;8.50;3.70;;;15.90;99.90;;;16.13;52.91;101436.06;6092283;22;98029;-35
2024/03/19 06:56:29;;;;;;;2.43;1.63;;;16.00;99.90;;;16.11;54.14;101439.72;6112945;22;97100;-35
2024/03/19 06:58:55;;;;;;;2.83;2.10;;;15.90;99.90;;;16.13;54.17;101446.69;6078911;22;100776;-36
2024/03/19 07:01:20;;;;;;;3.33;1.80;;;15.90;99.90;;;16.21;54.01;101449.03;6114242;22;103569;-35
2024/03/19 07:03:46;;;;;;;3.17;1.67;;;16.10;99.90;;;16.25;53.98;101451.47;6101303;22;125856;-37
2024/03/19 07:06:12;;;;;;;6.50;1.97;;;16.20;99.90;;;16.30;53.96;101448.56;6064085;22;119446;-36
2024/03/19 07:08:41;;;;;;;4.33;2.57;;;16.20;99.90;;;16.15;53.35;101449.28;6044135;22;105001;-35
2024/03/19 07:11:09;;;;;;;4.37;2.27;;;16.10;99.90;;;16.14;53.69;101464.41;6111885;22;98506;-33
2024/03/19 07:13:35;;;;;;;6.50;3.40;;;16.00;99.90;;;16.09;54.43;101453.09;6101387;22;102152;-35
2024/03/19 07:16:01;;;;;;;3.00;1.83;;;15.80;99.90;;;16.09;54.55;101461.09;6084565;22;97469;-37
2024/03/19 07:18:27;;;;;;;4.17;2.40;;;15.80;99.90;;;16.10;53.85;101465.47;6078201;22;115565;-36
2024/03/19 07:20:56;;;;;;;3.80;2.07;;;15.90;99.90;;;16.22;54.15;101459.59;6040306;22;99376;-35
2024/03/19 07:23:22;;;;;;;2.83;2.00;;;16.20;99.90;;;16.31;53.70;101461.81;6100582;22;105589;-34
2024/03/19 07:25:48;;;;;;;3.13;2.20;;;16.30;99.90;;;16.33;52.80;101469.72;6079837;22;107264;-41
2024/03/19 07:28:14;;;;;;;2.27;1.63;;;16.40;99.90;;;16.36;53.43;101470.47;6107144;22;105467;-36
2024/03/19 07:30:39;;;;;;;2.83;1.77;;;16.40;99.90;;;16.43;52.83;101465.69;6095145;22;116909;-37
2024/03/19 07:33:05;;;;;;;5.80;2.90;;;16.50;99.90;;;16.38;51.49;101473.06;6092228;22;108135;-36
2024/03/19 07:35:31;;;;;;;2.97;1.97;;;16.50;99.90;;;16.48;53.04;101473.47;5961952;22;98215;-36
2024/03/19 07:38:00;;;;;;;2.57;1.80;;;16.50;99.90;;;16.49;53.07;101481.41;6101399;22;97572;-36
2024/03/19 07:40:26;;;;;;;3.03;2.37;;;16.60;99.90;;;16.49;52.03;101476.09;5999906;22;99748;-36
2024/03/19 07:42:52;;;;;;;5.70;3.17;;;16.50;99.90;;;16.43;53.13;101475.50;6111130;22;98670;-37
2024/03/19 07:45:18;;;;;;;4.30;2.50;;;16.40;99.90;;;16.46;53.41;101470.88;6103431;22;97356;-36
2024/03/19 07:47:44;;;;;;;6.53;2.93;;;16.40;99.90;;;16.49;51.64;101470.75;6001767;22;97820;-41
2024/03/19 07:50:10;;;;;;;6.27;2.63;;;16.50;99.90;;;16.48;52.70;101473.47;5967539;22;123237;-35
2024/03/19 07:52:39;;;;;;;4.70;3.07;;;16.50;99.90;;;16.45;51.89;101478.94;5948125;22;99261;-35
2024/03/19 07:55:06;;;;;;;3.77;2.93;;;16.40;99.90;;;16.44;52.56;101480.75;6052384;22;97327;-37
2024/03/19 07:57:32;;;;;;;5.10;3.33;;;16.40;99.90;;;15.40;53.38;101472.09;6005014;22;97643;-44
2024/03/19 08:00:05;;;;;;;6.53;4.17;;;15.50;99.90;;;14.67;55.81;101487.53;5968604;22;98581;-40
2024/03/19 08:02:37;;;;;;;4.57;2.83;;;14.70;99.90;;;14.76;58.99;101489.84;5979839;22;99494;-34
2024/03/19 08:05:03;;;;;;;3.80;2.37;;;14.40;99.90;;;15.21;58.25;101481.78;6015978;22;97918;-36
2024/03/19 08:07:29;;;;;;;4.57;2.40;;;15.00;99.90;;;15.50;57.11;101485.88;6020321;22;97717;-35
2024/03/19 08:09:55;;;;;;;4.97;2.13;;;15.50;99.90;;;15.73;55.96;101485.75;6005262;22;121673;-36
2024/03/19 08:12:23;;;;;;;4.77;3.07;;;15.80;99.90;;;15.82;55.30;101483.63;6012807;22;99046;-37
2024/03/19 08:14:49;;;;;;;4.07;2.40;;;15.90;99.90;;;15.96;55.12;101481.22;6045610;22;97435;-36
2024/03/19 08:17:18;;;;;;;5.00;2.57;;;16.00;99.90;;;16.10;54.75;101484.09;6020927;22;108809;-36
2024/03/19 08:19:44;;;;;;;5.60;2.20;;;16.20;99.90;;;16.23;54.23;101477.28;6026542;22;98666;-37
2024/03/19 08:22:09;;;;;;;3.80;2.20;;;16.40;99.90;;;16.36;53.56;101481.13;6012018;22;103983;-37
2024/03/19 08:24:39;;;;;;;5.83;2.10;;;16.50;99.90;;;16.44;53.34;101488.72;6051458;22;100783;-37
2024/03/19 08:27:07;;;;;;;8.30;3.33;;;16.60;99.90;;;16.44;52.74;101490.53;5975865;22;98749;-36
2024/03/19 08:29:36;;;;;;;4.73;2.93;;;16.60;99.90;;;16.44;52.61;101487.88;5947150;22;97910;-37
2024/03/19 08:32:03;;;;;;;4.80;2.93;;;16.50;99.90;;;16.38;53.15;101488.16;5969576;22;98829;-38
2024/03/19 08:34:28;;;;;;;5.87;3.40;;;16.30;99.90;;;16.11;52.99;101501.81;5946174;22;99409;-38
2024/03/19 08:36:54;;;;;;;6.97;3.50;;;16.10;99.90;;;16.11;53.49;101495.63;6026644;22;97771;-36
2024/03/19 08:39:23;;;;;;;4.87;3.17;;;16.00;99.90;;;16.02;53.75;101507.53;6031987;22;100446;-36
2024/03/19 08:41:50;;;;;;;5.97;3.07;;;15.90;99.90;;;15.78;54.24;101493.53;6001472;22;98934;-40
2024/03/19 08:44:16;;;;;;;12.43;3.83;;;15.70;99.90;;;15.57;55.12;101497.09;5999231;22;97625;-42
2024/03/19 08:46:43;;;;;;;8.07;3.80;;;15.40;99.90;;;15.52;55.92;101496.44;6015224;22;97454;-38
2024/03/19 08:49:10;;;;;;;5.33;3.17;;;15.30;99.90;;;15.42;55.28;101495.94;6021994;22;118059;-34
2024/03/19 08:51:38;;;;;;;4.67;2.20;;;15.30;99.90;;;15.62;56.00;101500.44;5921636;22;102256;-36
2024/03/19 08:54:04;;;;;;;3.10;2.03;;;15.40;99.90;;;15.70;55.36;101507.16;5870804;23;101386;-36
2024/03/19 08:56:38;;;;;;;4.33;1.87;;;15.50;99.90;;;15.81;55.31;101497.84;5936261;22;99108;-37
2024/03/19 08:59:07;;;;;;;4.50;2.93;;;15.60;99.90;;;15.89;54.97;101506.34;5905367;22;104887;-37
2024/03/19 09:01:33;;;;;;;3.30;1.83;;;15.80;99.90;;;15.98;54.97;101500.63;5977068;22;97492;-37
2024/03/19 09:03:59;;;;;;;5.23;2.43;;;15.90;99.90;;;16.08;53.80;101504.59;5988766;22;121961;-36
2024/03/19 09:06:25;;;;;;;3.03;1.70;;;16.00;99.90;;;16.08;54.59;101501.09;5982318;22;98462;-37
2024/03/19 09:08:54;;;;;;;3.60;2.57;;;16.00;99.90;;;16.07;54.01;101500.22;5944343;22;99519;-37
2024/03/19 09:11:20;;;;;;;6.70;3.20;;;16.00;99.90;;;16.09;54.01;101493.03;5952219;22;105946;-38
2024/03/19 09:13:46;;;;;;;3.13;2.00;;;16.00;99.90;;;16.20;54.38;101503.16;5990211;22;118225;-35
2024/03/19 09:16:14;;;;;;;6.37;3.07;;;16.10;99.90;;;16.15;54.21;101498.06;6023857;22;122786;-38
2024/03/19 09:18:42;;;;;;;3.70;1.67;;;16.10;99.90;;;16.28;53.95;101487.72;6008872;22;100899;-37
2024/03/19 09:21:09;;;;;;;1.87;1.40;;;16.30;99.90;;;16.36;53.30;101486.44;5991663;22;103049;-37
2024/03/19 09:23:39;;;;;;;5.67;2.83;;;16.40;99.90;;;16.35;53.52;101484.72;6070919;22;98752;-37
2024/03/19 09:26:04;;;;;;;4.40;1.87;;;16.40;99.90;;;16.29;53.87;101479.66;6015273;22;104009;-37
2024/03/19 09:28:31;;;;;;;7.17;3.33;;;16.30;99.90;;;16.29;54.02;101489.44;5974375;22;120207;-43
2024/03/19 09:31:00;;;;;;;1.97;1.67;;;16.30;99.90;;;16.31;53.65;101488.44;5947468;23;98808;-36
2024/03/19 09:33:27;;;;;;;3.67;2.50;;;16.30;99.90;;;16.31;54.21;101483.09;6018095;22;98143;-36
2024/03/19 09:35:54;;;;;;;6.57;2.00;;;16.30;99.90;;;16.45;53.37;101479.81;5961644;22;97358;-37
2024/03/19 09:38:20;;;;;;;3.87;2.17;;;16.40;99.90;;;16.52;53.29;101470.59;6010145;22;109290;-36
2024/03/19 09:40:55;;;;;;;6.60;3.30;;;16.60;99.90;;;16.48;53.45;101468.13;5948243;22;99219;-36
2024/03/19 09:43:26;;;;;;;3.17;1.60;;;16.60;99.90;;;16.54;53.29;101475.84;5876359;23;101813;-38
2024/03/19 09:45:52;;;;;;;3.67;1.67;;;16.60;99.90;;;16.64;53.02;101470.03;5985634;22;100293;-37
2024/03/19 09:48:20;;;;;;;4.20;1.60;;;16.80;99.90;;;16.70;52.65;101476.88;5982305;22;98680;-37
2024/03/19 09:50:47;;;;;;;1.53;1.37;;;16.90;99.90;;;16.74;52.48;101470.44;5977302;22;99293;-36
2024/03/19 09:53:21;;;;;;;7.20;3.13;;;17.00;99.90;;;16.81;53.00;101471.03;6002713;22;97786;-37
2024/03/19 09:55:47;;;;;;;1.80;1.50;;;17.10;99.90;;;16.85;51.99;101478.78;6033430;22;98097;-36
2024/03/19 09:58:14;;;;;;;2.47;1.67;;;17.10;99.90;;;16.88;52.41;101477.78;5965553;22;97740;-37
2024/03/19 10:00:47;;;;;;;7.83;4.10;;;17.10;99.90;;;16.90;52.03;101475.91;5939257;22;102952;-37
2024/03/19 10:03:16;;;;;;;2.20;1.70;;;17.10;99.90;;;16.93;52.08;101471.31;5996593;22;98078;-36
2024/03/19 10:05:44;;;;;;;4.83;2.50;;;17.10;99.90;;;16.99;52.28;101466.59;6015656;22;97395;-37
2024/03/19 10:08:16;;;;;;;1.47;0.70;;;17.20;99.90;;;16.95;52.05;101477.41;5998596;22;107870;-36